createdAt,value
2017-06-12T00:00:04.459Z,20.80
2017-06-12T00:02:32.791Z,20.80
2017-06-12T00:05:01.106Z,20.70
2017-06-12T00:07:29.420Z,20.80
2017-06-12T00:09:57.753Z,20.80
2017-06-12T00:12:26.066Z,20.70
2017-06-12T00:14:54.405Z,20.70
2017-06-12T00:17:22.716Z,20.70
2017-06-12T00:19:51.100Z,20.70
2017-06-12T00:22:19.409Z,20.60
2017-06-12T00:24:47.760Z,20.60
2017-06-12T00:27:16.077Z,20.60
2017-06-12T00:29:44.389Z,20.50
2017-06-12T00:32:12.723Z,20.40
2017-06-12T00:34:41.042Z,20.30
2017-06-12T00:37:09.375Z,20.30
2017-06-12T00:39:37.695Z,20.20
2017-06-12T00:42:06.029Z,20.20
2017-06-12T00:44:34.341Z,20.10
2017-06-12T00:47:02.689Z,20.00
2017-06-12T00:49:30.998Z,20.00
2017-06-12T00:51:59.300Z,19.90
2017-06-12T00:54:27.629Z,19.80
2017-06-12T00:56:55.938Z,19.70
2017-06-12T00:59:24.268Z,19.70
2017-06-12T01:01:52.570Z,19.70
2017-06-12T01:04:20.904Z,19.70
2017-06-12T01:06:49.232Z,19.70
2017-06-12T01:09:17.569Z,19.70
2017-06-12T01:11:45.885Z,19.60
2017-06-12T01:14:14.192Z,19.60
2017-06-12T01:16:42.546Z,19.60
2017-06-12T01:19:10.851Z,19.60
2017-06-12T01:21:39.220Z,19.60
2017-06-12T01:24:07.532Z,19.50
2017-06-12T01:26:35.099Z,19.50
2017-06-12T01:29:03.411Z,19.40
2017-06-12T01:31:31.746Z,19.40
2017-06-12T01:34:00.104Z,19.40
2017-06-12T01:36:28.446Z,19.30
2017-06-12T01:38:56.747Z,19.30
2017-06-12T01:41:25.079Z,19.20
2017-06-12T01:43:53.388Z,19.30
2017-06-12T01:46:21.695Z,19.20
2017-06-12T01:48:50.023Z,19.20
2017-06-12T01:51:18.332Z,19.20
2017-06-12T01:53:46.664Z,19.20
2017-06-12T01:56:14.973Z,19.10
2017-06-12T01:58:43.304Z,19.10
2017-06-12T02:01:11.623Z,19.10
2017-06-12T02:03:39.960Z,19.00
2017-06-12T02:06:08.271Z,18.90
2017-06-12T02:08:36.575Z,18.90
2017-06-12T02:11:04.899Z,18.80
2017-06-12T02:13:33.207Z,18.80
2017-06-12T02:16:01.532Z,18.80
2017-06-12T02:18:29.851Z,18.80
2017-06-12T02:20:58.186Z,18.70
2017-06-12T02:23:26.500Z,18.70
2017-06-12T02:25:54.807Z,18.70
2017-06-12T02:28:23.139Z,18.70
2017-06-12T02:30:51.444Z,18.70
2017-06-12T02:33:19.772Z,18.60
2017-06-12T02:35:48.077Z,18.60
2017-06-12T02:38:16.427Z,18.50
2017-06-12T02:40:44.733Z,18.40
2017-06-12T02:43:13.039Z,18.40
2017-06-12T02:45:41.377Z,18.40
2017-06-12T02:48:09.683Z,18.30
2017-06-12T02:50:38.013Z,18.30
2017-06-12T02:53:06.332Z,18.30
2017-06-12T02:55:34.682Z,18.30
2017-06-12T02:58:02.223Z,18.30
2017-06-12T03:00:30.543Z,18.20
2017-06-12T03:02:58.877Z,18.10
2017-06-12T03:05:27.201Z,18.10
2017-06-12T03:07:55.533Z,18.10
2017-06-12T03:10:39.601Z,18.10
2017-06-12T03:13:07.940Z,18.00
2017-06-12T03:15:36.282Z,18.00
2017-06-12T03:18:04.633Z,17.90
2017-06-12T03:20:32.946Z,17.90
2017-06-12T03:23:01.257Z,17.80
2017-06-12T03:25:29.608Z,17.70
2017-06-12T03:27:58.417Z,17.70
2017-06-12T03:30:26.769Z,17.70
2017-06-12T03:32:55.108Z,17.70
2017-06-12T03:35:23.416Z,17.60
2017-06-12T03:37:51.743Z,17.50
2017-06-12T03:40:20.067Z,17.50
2017-06-12T03:42:48.437Z,17.50
2017-06-12T03:45:16.753Z,17.40
2017-06-12T03:47:45.100Z,17.30
2017-06-12T03:50:13.417Z,17.20
2017-06-12T03:52:41.731Z,17.10
2017-06-12T03:55:10.067Z,17.10
2017-06-12T03:57:38.375Z,17.00
2017-06-12T04:00:06.717Z,17.00
2017-06-12T04:02:35.063Z,17.40
2017-06-12T04:05:03.370Z,18.40
2017-06-12T04:07:31.703Z,19.20
2017-06-12T04:10:00.007Z,19.90
2017-06-12T04:12:28.348Z,20.40
2017-06-12T04:14:56.659Z,20.80
2017-06-12T04:17:24.967Z,21.30
2017-06-12T04:19:53.306Z,20.90
2017-06-12T04:22:21.612Z,20.50
2017-06-12T04:24:50.019Z,20.10
2017-06-12T04:27:18.335Z,19.80
2017-06-12T04:29:46.644Z,19.60
2017-06-12T04:32:14.971Z,19.50
2017-06-12T04:34:43.278Z,19.10
2017-06-12T04:37:11.639Z,18.60
2017-06-12T04:39:39.944Z,18.40
2017-06-12T04:42:08.255Z,18.20
2017-06-12T04:44:36.586Z,18.00
2017-06-12T04:47:04.897Z,18.10
2017-06-12T04:49:33.240Z,18.90
2017-06-12T04:52:01.552Z,19.80
2017-06-12T04:54:29.874Z,20.60
2017-06-12T04:56:58.213Z,20.90
2017-06-12T04:59:26.535Z,21.10
2017-06-12T05:01:54.879Z,21.40
2017-06-12T05:04:23.193Z,21.50
2017-06-12T05:06:51.503Z,21.60
2017-06-12T05:09:19.844Z,21.70
2017-06-12T05:11:48.195Z,21.70
2017-06-12T05:14:16.533Z,21.40
2017-06-12T05:16:44.848Z,20.80
2017-06-12T05:19:13.159Z,20.10
2017-06-12T05:21:41.496Z,19.70
2017-06-12T05:24:09.818Z,19.20
2017-06-12T05:26:38.170Z,18.90
2017-06-12T05:29:06.475Z,18.60
2017-06-12T05:31:34.785Z,18.40
2017-06-12T05:34:03.133Z,18.30
2017-06-12T05:36:31.460Z,18.40
2017-06-12T05:38:59.795Z,18.40
2017-06-12T05:41:28.110Z,18.40
2017-06-12T05:43:56.416Z,18.40
2017-06-12T05:46:24.751Z,18.40
2017-06-12T05:48:53.083Z,18.40
2017-06-12T05:51:21.415Z,18.40
2017-06-12T05:53:49.735Z,18.30
2017-06-12T05:56:18.117Z,18.40
2017-06-12T05:58:46.428Z,18.30
2017-06-12T06:01:14.740Z,18.30
2017-06-12T06:03:43.145Z,18.30
2017-06-12T06:06:10.688Z,18.20
2017-06-12T06:08:39.019Z,18.30
2017-06-12T06:11:07.335Z,18.30
2017-06-12T06:13:35.683Z,18.40
2017-06-12T06:16:03.996Z,18.50
2017-06-12T06:18:32.307Z,18.70
2017-06-12T06:20:59.877Z,18.70
2017-06-12T06:23:28.190Z,18.90
2017-06-12T06:25:56.525Z,18.90
2017-06-12T06:28:24.832Z,18.80
2017-06-12T06:30:53.175Z,18.60
2017-06-12T06:33:21.487Z,18.60
2017-06-12T06:35:49.807Z,18.50
2017-06-12T06:38:18.135Z,18.60
2017-06-12T06:40:46.461Z,18.60
2017-06-12T06:43:14.792Z,18.70
2017-06-12T06:45:43.098Z,18.80
2017-06-12T06:48:11.448Z,18.90
2017-06-12T06:50:39.812Z,19.20
2017-06-12T06:53:08.115Z,19.30
2017-06-12T06:55:36.444Z,19.50
2017-06-12T06:58:04.756Z,19.60
2017-06-12T07:00:33.087Z,19.60
2017-06-12T07:03:01.395Z,19.70
2017-06-12T07:05:29.728Z,19.80
2017-06-12T07:07:58.041Z,19.80
2017-06-12T07:10:26.346Z,19.80
2017-06-12T07:12:54.683Z,19.30
2017-06-12T07:15:22.988Z,19.20
2017-06-12T07:17:51.338Z,19.10
2017-06-12T07:20:19.643Z,19.40
2017-06-12T07:22:48.000Z,19.50
2017-06-12T07:25:16.304Z,19.70
2017-06-12T07:27:44.625Z,19.70
2017-06-12T07:30:12.185Z,19.70
2017-06-12T07:32:40.499Z,19.70
2017-06-12T07:35:08.833Z,19.60
2017-06-12T07:37:37.139Z,19.60
2017-06-12T07:40:05.473Z,19.80
2017-06-12T07:42:33.779Z,20.00
2017-06-12T07:45:02.113Z,20.10
2017-06-12T07:47:30.440Z,20.40
2017-06-12T07:49:58.749Z,20.40
2017-06-12T07:52:27.076Z,20.50
2017-06-12T07:54:55.383Z,20.60
2017-06-12T07:57:23.733Z,20.60
2017-06-12T07:59:52.035Z,20.50
2017-06-12T08:02:20.341Z,20.30
2017-06-12T08:04:48.664Z,20.40
2017-06-12T08:07:16.971Z,20.50
2017-06-12T08:09:45.301Z,20.60
2017-06-12T08:12:13.612Z,20.40
2017-06-12T08:14:41.959Z,20.00
2017-06-12T08:17:10.263Z,19.90
2017-06-12T08:19:38.571Z,20.10
2017-06-12T08:22:06.899Z,20.20
2017-06-12T08:24:35.208Z,20.30
2017-06-12T08:27:03.535Z,20.30
2017-06-12T08:29:31.076Z,20.30
2017-06-12T08:31:59.417Z,20.10
2017-06-12T08:34:27.726Z,20.20
2017-06-12T08:36:56.040Z,20.20
2017-06-12T08:39:24.371Z,20.40
2017-06-12T08:41:52.676Z,20.40
2017-06-12T08:44:21.016Z,20.50
2017-06-12T08:46:49.323Z,20.50
2017-06-12T08:49:17.660Z,20.70
2017-06-12T08:51:45.965Z,20.80
2017-06-12T08:54:14.307Z,20.80
2017-06-12T08:56:42.613Z,20.90
2017-06-12T08:59:10.915Z,20.90
2017-06-12T09:01:39.244Z,21.00
2017-06-12T09:04:07.546Z,21.10
2017-06-12T09:06:35.877Z,21.20
2017-06-12T09:09:04.180Z,21.30
2017-06-12T09:11:31.740Z,21.20
2017-06-12T09:14:00.048Z,21.40
2017-06-12T09:16:28.413Z,21.50
2017-06-12T09:18:56.721Z,21.50
2017-06-12T09:21:25.028Z,21.60
2017-06-12T09:23:53.425Z,21.60
2017-06-12T09:26:21.730Z,21.60
2017-06-12T09:28:50.057Z,21.60
2017-06-12T09:31:18.372Z,21.60
2017-06-12T09:33:46.702Z,21.50
2017-06-12T09:36:15.009Z,21.30
2017-06-12T09:38:43.347Z,21.20
2017-06-12T09:41:11.651Z,21.10
2017-06-12T09:43:39.964Z,21.20
2017-06-12T09:46:08.294Z,21.30
2017-06-12T09:48:36.601Z,21.30
2017-06-12T09:51:04.931Z,21.40
2017-06-12T09:53:33.231Z,21.50
2017-06-12T09:56:01.553Z,21.50
2017-06-12T09:58:29.855Z,21.40
2017-06-12T10:00:58.189Z,21.40
2017-06-12T10:03:26.498Z,21.60
2017-06-12T10:05:54.816Z,21.70
2017-06-12T10:08:23.148Z,21.90
2017-06-12T10:10:51.458Z,22.10
2017-06-12T10:13:19.793Z,22.20
2017-06-12T10:15:48.119Z,22.40
2017-06-12T10:18:16.443Z,22.50
2017-06-12T10:20:44.776Z,22.60
2017-06-12T10:23:13.111Z,22.70
2017-06-12T10:25:41.429Z,22.70
2017-06-12T10:28:09.741Z,22.90
2017-06-12T10:30:38.072Z,23.10
2017-06-12T10:33:06.375Z,23.20
2017-06-12T10:35:34.703Z,23.20
2017-06-12T10:38:03.009Z,23.40
2017-06-12T10:40:31.344Z,23.60
2017-06-12T10:42:59.651Z,23.80
2017-06-12T10:45:27.957Z,23.90
2017-06-12T10:47:56.288Z,24.00
2017-06-12T10:50:24.612Z,24.10
2017-06-12T10:52:52.940Z,24.20
2017-06-12T10:55:21.252Z,24.40
2017-06-12T10:57:49.595Z,24.50
2017-06-12T11:00:17.911Z,24.40
2017-06-12T11:02:46.219Z,24.30
2017-06-12T11:05:14.548Z,24.30
2017-06-12T11:07:42.853Z,24.20
2017-06-12T11:10:11.181Z,24.10
2017-06-12T11:12:39.487Z,24.00
2017-06-12T11:15:07.860Z,23.80
2017-06-12T11:17:36.173Z,23.80
2017-06-12T11:20:04.513Z,23.90
2017-06-12T11:22:38.619Z,23.90
2017-06-12T11:25:06.947Z,24.00
2017-06-12T11:27:35.252Z,24.30
2017-06-12T11:30:10.294Z,24.40
2017-06-12T11:32:38.599Z,24.40
2017-06-12T11:35:06.945Z,24.40
2017-06-12T11:37:35.286Z,24.50
2017-06-12T11:40:03.597Z,24.30
2017-06-12T11:42:31.933Z,24.00
2017-06-12T11:45:00.239Z,24.10
2017-06-12T11:47:27.797Z,24.00
2017-06-12T11:49:56.105Z,25.00
2017-06-12T11:52:24.441Z,25.20
2017-06-12T11:54:52.752Z,25.20
2017-06-12T11:57:21.059Z,25.20
2017-06-12T11:59:49.385Z,25.10
2017-06-12T12:02:17.705Z,25.00
2017-06-12T12:04:46.035Z,25.10
2017-06-12T12:07:14.360Z,25.30
2017-06-12T12:09:42.697Z,25.30
2017-06-12T12:12:11.019Z,25.30
2017-06-12T12:14:39.355Z,25.60
2017-06-12T12:17:07.673Z,25.70
2017-06-12T12:19:35.976Z,25.70
2017-06-12T12:22:04.371Z,25.60
2017-06-12T12:24:32.686Z,25.40
2017-06-12T12:27:01.020Z,24.90
2017-06-12T12:29:29.330Z,24.50
2017-06-12T12:31:57.656Z,24.20
2017-06-12T12:34:25.962Z,24.40
2017-06-12T12:36:54.328Z,24.70
2017-06-12T12:39:22.649Z,24.80
2017-06-12T12:41:51.043Z,25.00
2017-06-12T12:44:19.370Z,25.00
2017-06-12T12:46:47.696Z,24.80
2017-06-12T12:49:16.040Z,24.50
2017-06-12T12:51:44.351Z,24.80
2017-06-12T12:54:12.685Z,25.00
2017-06-12T12:56:41.013Z,24.80
2017-06-12T12:59:09.360Z,24.80
2017-06-12T13:01:37.673Z,25.00
2017-06-12T13:04:05.978Z,25.20
2017-06-12T13:06:34.308Z,25.50
2017-06-12T13:09:02.616Z,25.60
2017-06-12T13:11:30.948Z,25.60
2017-06-12T13:13:59.255Z,25.60
2017-06-12T13:16:27.589Z,25.40
2017-06-12T13:18:56.287Z,25.10
2017-06-12T13:21:24.595Z,25.10
2017-06-12T13:23:52.931Z,24.90
2017-06-12T13:26:21.240Z,24.80
2017-06-12T13:28:49.568Z,24.50
2017-06-12T13:31:17.897Z,24.40
2017-06-12T13:33:46.224Z,24.50
2017-06-12T13:36:14.560Z,24.50
2017-06-12T13:38:42.145Z,24.50
2017-06-12T13:41:10.451Z,24.70
2017-06-12T13:43:38.763Z,25.00
2017-06-12T13:46:07.093Z,25.20
2017-06-12T13:48:35.417Z,25.20
2017-06-12T13:51:03.751Z,25.20
2017-06-12T13:53:32.115Z,25.40
2017-06-12T13:56:00.446Z,25.40
2017-06-12T13:58:28.765Z,25.40
2017-06-12T14:00:56.344Z,25.40
2017-06-12T14:03:24.663Z,25.10
2017-06-12T14:05:53.078Z,25.10
2017-06-12T14:08:21.416Z,25.50
2017-06-12T14:10:49.720Z,25.90
2017-06-12T14:13:18.048Z,26.00
2017-06-12T14:15:45.599Z,25.90
2017-06-12T14:18:13.934Z,25.40
2017-06-12T14:20:42.241Z,25.00
2017-06-12T14:23:10.636Z,24.70
2017-06-12T14:25:38.943Z,24.20
2017-06-12T14:28:07.271Z,24.30
2017-06-12T14:30:35.715Z,24.80
2017-06-12T14:33:04.028Z,25.20
2017-06-12T14:35:32.358Z,25.50
2017-06-12T14:37:59.917Z,25.40
2017-06-12T14:40:28.253Z,25.60
2017-06-12T14:42:56.567Z,25.60
2017-06-12T14:45:24.897Z,25.70
2017-06-12T14:47:53.221Z,25.90
2017-06-12T14:50:21.529Z,25.70
2017-06-12T14:52:49.869Z,25.50
2017-06-12T14:55:18.172Z,25.40
2017-06-12T14:57:46.504Z,25.20
2017-06-12T15:00:14.065Z,25.20
2017-06-12T15:02:42.408Z,25.40
2017-06-12T15:05:10.713Z,25.60
2017-06-12T15:07:39.056Z,25.40
2017-06-12T15:10:07.364Z,25.00
2017-06-12T15:12:35.701Z,24.40
2017-06-12T15:15:04.009Z,23.90
2017-06-12T15:17:32.357Z,23.70
2017-06-12T15:20:00.668Z,23.60
2017-06-12T15:22:29.014Z,23.50
2017-06-12T15:24:57.330Z,23.40
2017-06-12T15:27:25.664Z,23.40
2017-06-12T15:29:53.973Z,23.50
2017-06-12T15:32:22.318Z,23.50
2017-06-12T15:34:50.632Z,23.30
2017-06-12T15:37:18.964Z,23.30
2017-06-12T15:39:47.323Z,23.30
2017-06-12T15:42:15.661Z,23.10
2017-06-12T15:44:43.985Z,23.10
2017-06-12T15:47:12.325Z,23.00
2017-06-12T15:49:40.637Z,23.10
2017-06-12T15:52:08.205Z,23.10
2017-06-12T15:54:36.517Z,23.30
2017-06-12T15:57:04.854Z,23.30
2017-06-12T15:59:33.155Z,23.50
2017-06-12T16:02:01.487Z,23.60
2017-06-12T16:04:29.796Z,23.50
2017-06-12T16:06:58.148Z,23.50
2017-06-12T16:09:26.459Z,23.50
2017-06-12T16:11:54.777Z,23.80
2017-06-12T16:14:23.124Z,23.80
2017-06-12T16:16:51.432Z,23.60
2017-06-12T16:19:19.773Z,23.40
2017-06-12T16:21:48.093Z,23.20
2017-06-12T16:24:16.433Z,22.90
2017-06-12T16:26:44.739Z,22.60
2017-06-12T16:29:13.089Z,22.30
2017-06-12T16:31:41.421Z,22.20
2017-06-12T16:34:09.773Z,22.10
2017-06-12T16:36:38.081Z,21.90
2017-06-12T16:39:06.413Z,21.70
2017-06-12T16:41:34.715Z,21.70
2017-06-12T16:44:03.085Z,21.60
2017-06-12T16:46:31.392Z,21.70
2017-06-12T16:48:59.707Z,22.10
2017-06-12T16:51:28.036Z,22.30
2017-06-12T16:53:56.343Z,22.20
2017-06-12T16:56:24.673Z,22.10
2017-06-12T16:58:52.983Z,22.10
2017-06-12T17:01:21.325Z,22.10
2017-06-12T17:03:49.639Z,22.00
2017-06-12T17:06:17.976Z,21.80
2017-06-12T17:08:46.308Z,21.50
2017-06-12T17:11:14.659Z,21.50
2017-06-12T17:13:42.972Z,21.50
2017-06-12T17:16:11.277Z,21.50
2017-06-12T17:18:39.633Z,21.70
2017-06-12T17:21:07.940Z,21.70
2017-06-12T17:23:36.280Z,21.60
2017-06-12T17:26:04.587Z,21.80
2017-06-12T17:28:32.952Z,21.70
2017-06-12T17:31:01.296Z,21.70
2017-06-12T17:33:29.631Z,21.60
2017-06-12T17:35:57.945Z,21.40
2017-06-12T17:38:26.298Z,21.30
2017-06-12T17:40:54.605Z,21.60
2017-06-12T17:43:23.036Z,22.60
2017-06-12T17:45:51.347Z,23.80
2017-06-12T17:48:19.685Z,24.80
2017-06-12T17:50:48.029Z,25.60
2017-06-12T17:53:16.367Z,25.20
2017-06-12T17:55:44.699Z,24.60
2017-06-12T17:58:13.067Z,24.70
2017-06-12T18:00:41.379Z,24.40
2017-06-12T18:03:09.700Z,24.10
2017-06-12T18:05:38.031Z,23.60
2017-06-12T18:08:06.355Z,22.80
2017-06-12T18:10:33.925Z,22.80
2017-06-12T18:13:02.234Z,23.00
2017-06-12T18:15:30.565Z,24.20
2017-06-12T18:17:58.879Z,24.90
2017-06-12T18:20:27.213Z,25.80
2017-06-12T18:22:55.521Z,26.40
2017-06-12T18:25:23.856Z,27.10
2017-06-12T18:27:52.172Z,27.20
2017-06-12T18:30:20.497Z,26.40
2017-06-12T18:32:48.833Z,25.70
2017-06-12T18:35:17.141Z,25.00
2017-06-12T18:37:45.483Z,23.90
2017-06-12T18:40:13.790Z,23.00
2017-06-12T18:42:42.144Z,22.20
2017-06-12T18:45:10.446Z,21.60
2017-06-12T18:47:38.807Z,21.10
2017-06-12T18:50:07.119Z,20.80
2017-06-12T18:52:35.431Z,20.60
2017-06-12T18:55:03.763Z,20.20
2017-06-12T18:57:32.108Z,19.90
2017-06-12T19:00:00.439Z,19.50
2017-06-12T19:02:27.980Z,19.50
2017-06-12T19:04:56.326Z,19.00
2017-06-12T19:07:24.635Z,18.80
2017-06-12T19:09:53.096Z,18.70
2017-06-12T19:12:21.456Z,18.60
2017-06-12T19:14:49.812Z,18.50
2017-06-12T19:17:18.144Z,18.40
2017-06-12T19:19:46.466Z,18.30
2017-06-12T19:22:14.808Z,18.20
2017-06-12T19:24:43.152Z,18.20
2017-06-12T19:27:11.500Z,18.10
2017-06-12T19:29:39.987Z,18.00
2017-06-12T19:32:08.402Z,17.90
2017-06-12T19:34:36.732Z,17.80
2017-06-12T19:37:05.071Z,17.80
2017-06-12T19:39:33.407Z,17.70
2017-06-12T19:42:01.745Z,17.60
2017-06-12T19:44:30.124Z,17.50
2017-06-12T19:46:58.515Z,17.40
2017-06-12T19:49:26.852Z,17.40
2017-06-12T19:51:55.159Z,17.30
2017-06-12T19:54:23.504Z,17.20
2017-06-12T19:56:51.811Z,17.20
2017-06-12T19:59:20.304Z,17.10
2017-06-12T20:01:48.615Z,17.10
2017-06-12T20:04:16.968Z,17.00
2017-06-12T20:06:45.328Z,16.90
2017-06-12T20:09:12.893Z,16.90
2017-06-12T20:11:41.277Z,16.70
2017-06-12T20:14:09.595Z,16.70
2017-06-12T20:16:39.770Z,16.60
2017-06-12T20:19:08.091Z,16.50
2017-06-12T20:21:36.523Z,16.50
2017-06-12T20:24:04.869Z,16.50
2017-06-12T20:26:33.258Z,16.40
2017-06-12T20:29:01.649Z,16.40
2017-06-12T20:31:29.964Z,16.40
2017-06-12T20:33:58.308Z,16.40
2017-06-12T20:36:26.616Z,16.30
2017-06-12T20:38:54.952Z,16.30
2017-06-12T20:41:23.268Z,16.30
2017-06-12T20:43:51.610Z,16.20
2017-06-12T20:46:19.915Z,16.20
2017-06-12T20:48:48.252Z,16.10
2017-06-12T20:51:16.554Z,16.00
2017-06-12T20:53:44.896Z,16.00
2017-06-12T20:56:13.206Z,15.90
2017-06-12T20:58:41.514Z,15.90
2017-06-12T21:01:09.860Z,15.90
2017-06-12T21:03:38.176Z,15.90
2017-06-12T21:06:06.521Z,15.90
2017-06-12T21:08:34.837Z,15.80
2017-06-12T21:11:03.182Z,15.80
2017-06-12T21:13:31.491Z,15.80
2017-06-12T21:15:59.839Z,15.70
2017-06-12T21:18:28.155Z,15.60
2017-06-12T21:20:56.507Z,15.60
2017-06-12T21:23:24.820Z,15.50
2017-06-12T21:25:53.140Z,15.50
2017-06-12T21:28:21.484Z,15.50
2017-06-12T21:30:49.800Z,15.50
2017-06-12T21:33:18.140Z,15.50
2017-06-12T21:35:46.487Z,15.50
2017-06-12T21:38:14.832Z,15.40
2017-06-12T21:40:43.167Z,15.40
2017-06-12T21:43:11.512Z,15.40
2017-06-12T21:45:39.832Z,15.40
2017-06-12T21:48:08.195Z,15.40
2017-06-12T21:50:36.536Z,15.30
2017-06-12T21:53:05.030Z,15.20
2017-06-12T21:55:33.409Z,15.20
2017-06-12T21:58:01.723Z,15.10
2017-06-12T22:00:30.061Z,15.10
2017-06-12T22:02:58.387Z,15.00
2017-06-12T22:05:26.738Z,15.00
2017-06-12T22:07:55.053Z,15.00
2017-06-12T22:10:23.409Z,15.00
2017-06-12T22:12:51.740Z,15.00
2017-06-12T22:15:20.055Z,15.00
2017-06-12T22:17:47.640Z,15.00
2017-06-12T22:20:15.952Z,15.10
2017-06-12T22:22:44.295Z,15.10
2017-06-12T22:25:12.607Z,15.00
2017-06-12T22:27:40.965Z,15.00
2017-06-12T22:30:09.272Z,15.00
2017-06-12T22:32:37.608Z,15.10
2017-06-12T22:35:05.920Z,15.10
2017-06-12T22:37:34.285Z,15.10
2017-06-12T22:40:02.595Z,15.10
2017-06-12T22:42:30.907Z,15.10
2017-06-12T22:44:59.249Z,15.10
2017-06-12T22:47:27.568Z,15.10
2017-06-12T22:49:55.899Z,15.10
2017-06-12T22:52:24.207Z,15.20
2017-06-12T22:54:52.544Z,15.20
2017-06-12T22:57:20.849Z,15.20
2017-06-12T22:59:49.179Z,15.20
2017-06-12T23:02:17.501Z,15.20
2017-06-12T23:04:45.856Z,15.20
2017-06-12T23:07:14.164Z,15.10
2017-06-12T23:09:42.476Z,15.10
2017-06-12T23:12:10.827Z,15.10
2017-06-12T23:14:39.131Z,15.00
2017-06-12T23:17:07.463Z,15.00
2017-06-12T23:19:35.779Z,14.90
2017-06-12T23:22:04.132Z,14.90
2017-06-12T23:24:32.442Z,14.90
2017-06-12T23:27:00.787Z,14.90
2017-06-12T23:29:29.107Z,14.90
2017-06-12T23:31:56.665Z,14.80
2017-06-12T23:34:24.999Z,14.80
2017-06-12T23:36:52.541Z,14.80
2017-06-12T23:39:20.876Z,14.90
2017-06-12T23:41:49.188Z,14.90
2017-06-12T23:44:17.523Z,14.90
2017-06-12T23:46:45.927Z,14.90
2017-06-12T23:49:14.335Z,14.90
2017-06-12T23:51:42.648Z,14.90
2017-06-12T23:54:11.007Z,15.00
2017-06-12T23:56:39.320Z,15.00
2017-06-12T23:59:07.715Z,15.00
